Terminal Aerodrome Forecast
Issued by NWS Jackson, MS

Home | Current Version | Previous Version | Text Only | Print | Product List | Glossary On
Versions: 1 2 3 4 5 6 7 8 9 10 11 12 13 14 15 16 17
000
FTUS44 KJAN 240555
TAFGLH
TAF
KGLH 240555Z 2406/2506 16004KT P6SM SKC
     FM241800 20005KT P6SM FEW035
     FM242100 20005KT P6SM VCTS SCT035CB
     FM250000 18005KT P6SM FEW050=

USA.gov is the U.S. government's official web portal to all federal, state and local government web resources and services.